South Roxana, Illinois
Current Conditions -  °F | °C
As of 11:35 PM on Wednesday 26 Nov 2014 (Local Time) from KALN Reporting Station
Light Snow Light Snow  
Wind Chill: 25°   Ceiling: 600
Heat Index: 32°   Visibility: 4mi
Dew Point: 31°   Wind: 8mph
Humidity: 96%   Direction: 350°N
Pressure: 30.2"   Gusts: NA
Location:  38.83°N, 90.06°W
Report Text: KALN 270535Z AUTO 35007KT 4SM -SN OVC006 00/00 A3020 RMK AO2 T00001005
Loading
Personal Weather Stations






























Interactive Weather Map New forecast layout! Learn more

10-Day Weather Forecast

Advertisements
Track Severe Weather on mobile